createdAt,value
2022-09-22T00:02:07.977Z,47.43
2022-09-22T00:04:34.399Z,47.24
2022-09-22T00:07:00.756Z,47.39
2022-09-22T00:09:27.127Z,47.30
2022-09-22T00:11:53.501Z,47.30
2022-09-22T00:14:19.869Z,47.19
2022-09-22T00:16:46.269Z,47.24
2022-09-22T00:19:12.672Z,47.25
2022-09-22T00:21:39.033Z,47.15
2022-09-22T00:24:05.512Z,47.18
2022-09-22T00:26:32.013Z,47.02
2022-09-22T00:28:58.368Z,47.00
2022-09-22T00:31:24.829Z,47.03
2022-09-22T00:33:51.289Z,47.14
2022-09-22T00:36:17.672Z,46.97
2022-09-22T00:38:44.034Z,47.00
2022-09-22T00:41:10.420Z,47.03
2022-09-22T00:43:36.782Z,47.00
2022-09-22T00:46:03.153Z,47.03
2022-09-22T00:48:29.524Z,47.23
2022-09-22T00:50:55.885Z,46.96
2022-09-22T00:53:22.254Z,47.05
2022-09-22T00:55:48.630Z,46.89
2022-09-22T00:58:14.993Z,47.03
2022-09-22T01:00:41.360Z,46.89
2022-09-22T01:03:07.753Z,46.93
2022-09-22T01:05:34.111Z,46.99
2022-09-22T01:08:00.473Z,47.04
2022-09-22T01:10:26.855Z,47.03
2022-09-22T01:12:53.227Z,46.92
2022-09-22T01:15:19.614Z,46.86
2022-09-22T01:17:45.982Z,47.01
2022-09-22T01:20:12.349Z,46.80
2022-09-22T01:22:38.703Z,46.77
2022-09-22T01:25:05.068Z,46.88
2022-09-22T01:27:31.449Z,46.79
2022-09-22T01:29:57.821Z,46.70
2022-09-22T01:32:24.183Z,46.79
2022-09-22T01:34:50.542Z,46.75
2022-09-22T01:37:16.911Z,46.70
2022-09-22T01:39:43.260Z,46.59
2022-09-22T01:42:09.623Z,46.46
2022-09-22T01:44:35.997Z,46.59
2022-09-22T01:47:02.357Z,46.43
2022-09-22T01:49:28.724Z,46.48
2022-09-22T01:51:55.093Z,46.48
2022-09-22T01:54:21.455Z,46.49
2022-09-22T01:56:47.817Z,46.48
2022-09-22T01:59:14.191Z,46.38
2022-09-22T02:01:40.634Z,46.47
2022-09-22T02:04:07.052Z,46.58
2022-09-22T02:06:33.428Z,46.40
2022-09-22T02:08:59.843Z,46.46
2022-09-22T02:11:26.265Z,46.45
2022-09-22T02:13:52.633Z,46.46
2022-09-22T02:16:19.058Z,46.55
2022-09-22T02:18:45.488Z,46.38
2022-09-22T02:21:11.841Z,46.36
2022-09-22T02:23:38.206Z,46.37
2022-09-22T02:26:04.584Z,46.45
2022-09-22T02:28:30.939Z,46.36
2022-09-22T02:31:18.607Z,46.34
2022-09-22T02:33:43.790Z,46.44
2022-09-22T02:36:10.160Z,46.47
2022-09-22T02:38:36.517Z,46.38
2022-09-22T02:41:02.885Z,46.45
2022-09-22T02:43:29.255Z,46.46
2022-09-22T02:45:55.661Z,46.60
2022-09-22T02:48:22.055Z,46.36
2022-09-22T02:50:48.434Z,46.54
2022-09-22T02:53:14.798Z,46.43
2022-09-22T02:55:41.165Z,46.41
2022-09-22T02:58:07.531Z,46.47
2022-09-22T03:00:33.889Z,46.60
2022-09-22T03:03:00.249Z,46.51
2022-09-22T03:05:26.611Z,46.47
2022-09-22T03:07:52.985Z,46.48
2022-09-22T03:10:19.362Z,46.43
2022-09-22T03:13:09.131Z,46.54
2022-09-22T03:15:32.183Z,46.33
2022-09-22T03:17:58.590Z,46.54
2022-09-22T03:20:24.962Z,46.53
2022-09-22T03:22:51.324Z,46.49
2022-09-22T03:25:17.693Z,46.46
2022-09-22T03:27:44.065Z,46.44
2022-09-22T03:30:10.435Z,46.46
2022-09-22T03:32:36.783Z,46.65
2022-09-22T03:35:03.226Z,46.84
2022-09-22T03:37:29.614Z,46.40
2022-09-22T03:39:58.798Z,46.70
2022-09-22T03:42:25.177Z,46.63
2022-09-22T03:44:51.540Z,46.63
2022-09-22T03:47:17.892Z,46.67
2022-09-22T03:49:44.260Z,46.68
2022-09-22T03:54:51.082Z,46.85
2022-09-22T03:57:17.548Z,46.70
2022-09-22T03:59:43.910Z,46.62
2022-09-22T04:02:10.302Z,46.71
2022-09-22T04:04:36.703Z,46.82
2022-09-22T04:07:07.159Z,46.65
2022-09-22T04:09:33.980Z,46.78
2022-09-22T04:12:00.387Z,46.56
2022-09-22T04:14:26.743Z,46.68
2022-09-22T04:16:53.148Z,46.70
2022-09-22T04:19:19.537Z,46.67
2022-09-22T04:21:45.902Z,46.66
2022-09-22T04:24:12.278Z,46.74
2022-09-22T04:26:38.637Z,46.59
2022-09-22T04:29:04.996Z,46.52
2022-09-22T04:31:31.385Z,46.57
2022-09-22T04:33:57.749Z,46.57
2022-09-22T04:36:24.109Z,46.67
2022-09-22T04:38:50.479Z,46.79
2022-09-22T04:41:16.832Z,46.76
2022-09-22T04:43:43.188Z,46.57
2022-09-22T04:46:09.587Z,46.54
2022-09-22T04:48:35.969Z,46.86
2022-09-22T04:51:02.331Z,46.92
2022-09-22T04:53:28.698Z,46.81
2022-09-22T04:55:55.071Z,46.88
2022-09-22T04:58:21.427Z,46.79
2022-09-22T05:00:47.789Z,46.83
2022-09-22T05:03:16.524Z,46.79
2022-09-22T05:05:46.344Z,46.73
2022-09-22T05:08:12.717Z,46.79
2022-09-22T05:10:39.081Z,46.53
2022-09-22T05:13:05.445Z,46.70
2022-09-22T05:15:31.815Z,46.62
2022-09-22T05:17:58.173Z,46.83
2022-09-22T05:20:24.538Z,46.66
2022-09-22T05:22:50.911Z,46.71
2022-09-22T05:25:17.283Z,46.64
2022-09-22T05:27:43.695Z,46.81
2022-09-22T05:30:10.043Z,46.69
2022-09-22T05:32:36.403Z,46.87
2022-09-22T05:35:02.770Z,46.71
2022-09-22T05:37:29.130Z,46.84
2022-09-22T05:39:55.501Z,46.72
2022-09-22T05:42:21.872Z,46.70
2022-09-22T05:44:48.234Z,46.73
2022-09-22T05:47:14.607Z,46.82
2022-09-22T05:49:40.973Z,46.58
2022-09-22T05:52:07.321Z,46.63
2022-09-22T05:54:33.700Z,46.66
2022-09-22T05:57:00.063Z,46.77
2022-09-22T05:59:26.440Z,46.74
2022-09-22T06:01:57.395Z,46.03
2022-09-22T06:04:25.771Z,45.21
2022-09-22T06:06:52.159Z,45.50
2022-09-22T06:09:18.515Z,45.58
2022-09-22T06:11:44.877Z,45.60
2022-09-22T06:14:11.254Z,45.54
2022-09-22T06:16:37.638Z,45.61
2022-09-22T06:19:04.019Z,45.67
2022-09-22T06:21:30.396Z,45.79
2022-09-22T06:23:56.774Z,45.76
2022-09-22T06:26:23.173Z,45.72
2022-09-22T06:28:49.542Z,45.69
2022-09-22T06:31:15.970Z,45.72
2022-09-22T06:33:42.472Z,45.81
2022-09-22T06:38:35.142Z,45.86
2022-09-22T06:41:01.650Z,45.84
2022-09-22T06:43:28.172Z,46.03
2022-09-22T06:45:55.943Z,45.91
2022-09-22T06:48:22.378Z,45.80
2022-09-22T06:50:49.042Z,45.78
2022-09-22T06:53:16.101Z,45.90
2022-09-22T06:55:42.478Z,45.77
2022-09-22T06:58:09.027Z,45.73
2022-09-22T07:00:35.474Z,45.87
2022-09-22T07:03:01.872Z,45.73
2022-09-22T07:05:28.261Z,45.86
2022-09-22T07:07:54.711Z,45.65
2022-09-22T07:10:21.063Z,45.68
2022-09-22T07:12:47.450Z,45.58
2022-09-22T07:15:13.929Z,45.48
2022-09-22T07:20:06.607Z,45.59
2022-09-22T07:22:32.976Z,45.64
2022-09-22T07:24:59.336Z,45.64
2022-09-22T07:27:25.688Z,45.66
2022-09-22T07:29:52.056Z,45.59
2022-09-22T07:32:18.408Z,45.72
2022-09-22T07:34:44.785Z,45.74
2022-09-22T07:37:11.148Z,45.74
2022-09-22T07:39:37.516Z,45.77
2022-09-22T07:42:03.884Z,45.77
2022-09-22T07:44:30.246Z,45.75
2022-09-22T07:46:56.627Z,45.73
2022-09-22T07:49:23.012Z,45.72
2022-09-22T07:51:49.373Z,45.77
2022-09-22T07:54:15.743Z,45.71
2022-09-22T07:56:42.117Z,45.59
2022-09-22T07:59:08.477Z,45.73
2022-09-22T08:01:34.865Z,45.66
2022-09-22T08:04:01.253Z,45.79
2022-09-22T08:06:27.616Z,45.64
2022-09-22T08:08:53.986Z,45.86
2022-09-22T08:11:20.452Z,45.68
2022-09-22T08:13:46.811Z,45.89
2022-09-22T08:16:13.204Z,45.96
2022-09-22T08:18:39.617Z,45.88
2022-09-22T08:21:05.981Z,45.78
2022-09-22T08:23:32.353Z,45.86
2022-09-22T08:25:58.744Z,45.86
2022-09-22T08:28:25.099Z,45.78
2022-09-22T08:30:51.467Z,45.54
2022-09-22T08:33:17.843Z,45.79
2022-09-22T08:35:44.204Z,45.71
2022-09-22T08:38:12.836Z,45.50
2022-09-22T08:40:39.466Z,45.55
2022-09-22T08:43:05.840Z,45.35
2022-09-22T08:47:58.504Z,45.52
2022-09-22T08:50:24.861Z,45.55
2022-09-22T08:52:51.229Z,45.38
2022-09-22T08:55:17.605Z,45.31
2022-09-22T08:57:43.982Z,45.27
2022-09-22T09:00:10.377Z,45.28
2022-09-22T09:02:36.852Z,45.41
2022-09-22T09:05:03.253Z,45.39
2022-09-22T09:07:29.621Z,45.32
2022-09-22T09:09:55.993Z,45.41
2022-09-22T09:12:22.381Z,45.43
2022-09-22T09:14:48.767Z,45.40
2022-09-22T09:17:15.142Z,45.43
2022-09-22T09:19:41.504Z,45.48
2022-09-22T09:22:07.870Z,45.40
2022-09-22T09:27:20.569Z,45.53
2022-09-22T09:29:46.937Z,45.51
2022-09-22T09:32:13.308Z,45.45
2022-09-22T09:34:39.684Z,45.40
2022-09-22T09:37:06.050Z,45.35
2022-09-22T09:39:32.434Z,45.34
2022-09-22T09:41:58.803Z,45.58
2022-09-22T09:44:25.186Z,45.33
2022-09-22T09:46:51.557Z,45.43
2022-09-22T09:49:17.917Z,45.40
2022-09-22T09:51:44.444Z,45.44
2022-09-22T09:54:16.034Z,45.38
2022-09-22T09:56:43.543Z,45.48
2022-09-22T09:59:09.910Z,45.57
2022-09-22T10:01:36.295Z,45.05
2022-09-22T10:04:02.710Z,45.13
2022-09-22T10:06:29.155Z,45.01
2022-09-22T10:08:55.514Z,44.98
2022-09-22T10:11:21.883Z,44.88
2022-09-22T10:13:48.249Z,45.08
2022-09-22T10:16:14.678Z,45.15
2022-09-22T10:18:41.082Z,45.22
2022-09-22T10:21:07.457Z,45.15
2022-09-22T10:23:33.826Z,45.10
2022-09-22T10:26:00.201Z,45.20
2022-09-22T10:28:26.568Z,45.29
2022-09-22T10:30:52.963Z,45.18
2022-09-22T10:33:19.458Z,45.35
2022-09-22T10:35:45.821Z,45.37
2022-09-22T10:38:12.194Z,45.36
2022-09-22T10:40:38.678Z,45.40
2022-09-22T10:43:05.098Z,45.28
2022-09-22T10:45:31.459Z,45.35
2022-09-22T10:47:57.873Z,45.33
2022-09-22T10:50:24.245Z,45.42
2022-09-22T10:52:50.599Z,45.34
2022-09-22T10:55:16.968Z,45.38
2022-09-22T10:57:43.332Z,45.42
2022-09-22T11:00:09.700Z,45.48
2022-09-22T11:02:36.090Z,45.29
2022-09-22T11:05:02.543Z,45.36
2022-09-22T11:07:28.945Z,45.55
2022-09-22T11:09:55.327Z,45.51
2022-09-22T11:12:21.692Z,45.44
2022-09-22T11:14:48.065Z,45.55
2022-09-22T11:17:14.439Z,45.37
2022-09-22T11:19:40.815Z,45.48
2022-09-22T11:22:07.171Z,45.47
2022-09-22T11:24:33.555Z,45.42
2022-09-22T11:26:59.929Z,45.48
2022-09-22T11:29:26.305Z,45.57
2022-09-22T11:31:52.767Z,45.50
2022-09-22T11:34:19.140Z,45.63
2022-09-22T11:36:50.712Z,45.59
2022-09-22T11:39:18.010Z,45.55
2022-09-22T11:41:44.380Z,45.53
2022-09-22T11:44:10.778Z,45.38
2022-09-22T11:46:37.210Z,45.52
2022-09-22T11:49:03.584Z,45.64
2022-09-22T11:51:29.964Z,45.40
2022-09-22T11:53:56.351Z,45.55
2022-09-22T11:56:22.722Z,45.62
2022-09-22T11:58:49.125Z,45.59
2022-09-22T12:01:15.486Z,45.46
2022-09-22T12:03:42.017Z,45.50
2022-09-22T12:06:08.502Z,45.63
2022-09-22T12:08:34.880Z,45.64
2022-09-22T12:11:01.249Z,45.46
2022-09-22T12:13:27.612Z,45.53
2022-09-22T12:15:54.051Z,45.76
2022-09-22T12:18:20.480Z,45.55
2022-09-22T12:20:46.843Z,45.55
2022-09-22T12:23:13.231Z,45.61
2022-09-22T12:25:48.000Z,45.67
2022-09-22T12:28:15.280Z,45.65
2022-09-22T12:30:41.689Z,45.54
2022-09-22T12:33:08.076Z,45.61
2022-09-22T12:35:34.470Z,45.64
2022-09-22T12:38:00.855Z,45.56
2022-09-22T12:40:27.295Z,45.62
2022-09-22T12:42:53.715Z,45.63
2022-09-22T12:45:20.083Z,45.59
2022-09-22T12:47:46.458Z,45.46
2022-09-22T12:50:12.844Z,45.45
2022-09-22T12:52:39.200Z,45.58
2022-09-22T12:55:05.573Z,45.58
2022-09-22T12:57:31.969Z,45.58
2022-09-22T12:59:58.332Z,45.44
2022-09-22T13:02:24.731Z,45.47
2022-09-22T13:04:51.120Z,45.28
2022-09-22T13:07:17.491Z,45.43
2022-09-22T13:09:43.860Z,45.35
2022-09-22T13:12:10.246Z,45.26
2022-09-22T13:14:36.612Z,45.38
2022-09-22T13:17:02.994Z,45.33
2022-09-22T13:19:29.586Z,45.42
2022-09-22T13:21:56.000Z,45.34
2022-09-22T13:24:26.600Z,45.45
2022-09-22T13:26:53.783Z,45.41
2022-09-22T13:29:20.198Z,45.27
2022-09-22T13:31:46.561Z,45.35
2022-09-22T13:34:12.945Z,45.19
2022-09-22T13:36:39.326Z,45.29
2022-09-22T13:39:05.701Z,45.34
2022-09-22T13:41:32.074Z,45.32
2022-09-22T13:43:58.496Z,45.37
2022-09-22T13:46:24.914Z,45.39
2022-09-22T13:48:51.310Z,45.21
2022-09-22T13:51:17.692Z,45.48
2022-09-22T13:53:44.065Z,45.41
2022-09-22T13:56:10.438Z,45.33
2022-09-22T13:58:36.828Z,45.33
2022-09-22T14:01:13.410Z,45.36
2022-09-22T14:03:40.386Z,45.14
2022-09-22T14:06:06.755Z,44.67
2022-09-22T14:08:33.133Z,45.06
2022-09-22T14:10:59.518Z,45.09
2022-09-22T14:13:25.904Z,44.97
2022-09-22T14:15:52.285Z,44.93
2022-09-22T14:18:18.668Z,44.90
2022-09-22T14:20:45.040Z,44.95
2022-09-22T14:23:11.423Z,44.97
2022-09-22T14:25:37.801Z,45.18
2022-09-22T14:28:04.281Z,45.09
2022-09-22T14:30:30.660Z,45.16
2022-09-22T14:32:57.042Z,45.03
2022-09-22T14:35:23.429Z,45.03
2022-09-22T14:37:49.813Z,45.17
2022-09-22T14:40:16.234Z,45.04
2022-09-22T14:42:42.652Z,45.04
2022-09-22T14:45:09.039Z,45.08
2022-09-22T14:47:35.407Z,45.12
2022-09-22T14:50:01.783Z,45.22
2022-09-22T14:52:30.907Z,45.14
2022-09-22T14:54:57.275Z,45.26
2022-09-22T14:57:23.653Z,45.31
2022-09-22T14:59:50.124Z,45.17
2022-09-22T15:02:16.519Z,45.13
2022-09-22T15:04:42.917Z,45.25
2022-09-22T15:07:09.088Z,45.24
2022-09-22T15:09:35.462Z,45.24
2022-09-22T15:12:01.840Z,45.10
2022-09-22T15:14:28.216Z,45.08
2022-09-22T15:16:54.603Z,45.31
2022-09-22T15:19:20.978Z,45.17
2022-09-22T15:21:47.356Z,45.21
2022-09-22T15:24:13.742Z,45.04
2022-09-22T15:26:40.113Z,45.11
2022-09-22T15:29:06.476Z,45.17
2022-09-22T15:31:32.889Z,45.12
2022-09-22T15:33:59.317Z,45.23
2022-09-22T15:36:25.691Z,45.19
2022-09-22T15:38:52.086Z,45.23
2022-09-22T15:41:18.458Z,45.25
2022-09-22T15:43:45.027Z,45.19
2022-09-22T15:46:11.425Z,45.17
2022-09-22T15:48:37.865Z,45.18
2022-09-22T15:51:04.241Z,45.22
2022-09-22T15:53:30.622Z,45.29
2022-09-22T15:55:57.002Z,45.19
2022-09-22T15:58:23.388Z,45.28
2022-09-22T16:00:49.816Z,45.30
2022-09-22T16:03:16.332Z,45.43
2022-09-22T16:05:42.760Z,45.24
2022-09-22T16:08:09.119Z,45.24
2022-09-22T16:10:35.492Z,45.35
2022-09-22T16:13:01.860Z,45.43
2022-09-22T16:15:28.245Z,45.36
2022-09-22T16:17:54.609Z,45.37
2022-09-22T16:20:20.972Z,45.43
2022-09-22T16:22:47.348Z,45.53
2022-09-22T16:25:13.723Z,45.44
2022-09-22T16:27:40.097Z,45.45
2022-09-22T16:30:06.477Z,45.56
2022-09-22T16:32:32.840Z,45.57
2022-09-22T16:34:59.215Z,45.53
2022-09-22T16:37:25.594Z,45.70
2022-09-22T16:39:51.956Z,45.93
2022-09-22T16:42:21.646Z,45.76
2022-09-22T16:44:49.851Z,45.91
2022-09-22T16:47:16.221Z,46.16
2022-09-22T16:49:42.591Z,46.05
2022-09-22T16:52:08.965Z,46.08
2022-09-22T16:54:35.328Z,46.07
2022-09-22T16:57:01.696Z,46.08
2022-09-22T16:59:28.059Z,46.25
2022-09-22T17:01:54.473Z,46.23
2022-09-22T17:04:20.881Z,46.19
2022-09-22T17:06:47.260Z,46.26
2022-09-22T17:09:13.658Z,46.19
2022-09-22T17:11:40.046Z,46.24
2022-09-22T17:14:11.282Z,46.15
2022-09-22T17:16:38.677Z,46.12
2022-09-22T17:19:05.090Z,46.19
2022-09-22T17:21:34.238Z,46.31
2022-09-22T17:24:00.996Z,46.30
2022-09-22T17:26:27.378Z,46.33
2022-09-22T17:28:53.755Z,46.32
2022-09-22T17:31:20.179Z,46.29
2022-09-22T17:33:51.331Z,46.35
2022-09-22T17:36:18.805Z,46.26
2022-09-22T17:38:45.211Z,46.23
2022-09-22T17:41:11.582Z,46.31
2022-09-22T17:43:37.953Z,46.15
2022-09-22T17:46:04.342Z,46.23
2022-09-22T17:48:30.708Z,46.13
2022-09-22T17:50:57.090Z,46.16
2022-09-22T17:53:23.457Z,46.00
2022-09-22T17:55:49.833Z,46.07
2022-09-22T17:58:16.218Z,45.93
2022-09-22T18:00:42.595Z,46.02
2022-09-22T18:03:09.028Z,45.88
2022-09-22T18:05:35.421Z,45.95
2022-09-22T18:08:01.800Z,46.04
2022-09-22T18:10:28.172Z,46.41
2022-09-22T18:12:54.537Z,46.84
2022-09-22T18:15:20.920Z,47.39
2022-09-22T18:17:47.291Z,47.97
2022-09-22T18:20:13.668Z,49.00
2022-09-22T18:22:40.047Z,49.46
2022-09-22T18:25:06.422Z,50.25
2022-09-22T18:27:32.797Z,50.36
2022-09-22T18:29:59.164Z,50.28
2022-09-22T18:32:25.558Z,50.60
2022-09-22T18:34:51.937Z,50.09
2022-09-22T18:37:18.311Z,49.48
2022-09-22T18:39:44.786Z,49.74
2022-09-22T18:42:11.175Z,49.85
2022-09-22T18:44:37.550Z,49.75
2022-09-22T18:47:03.919Z,49.50
2022-09-22T18:49:30.283Z,49.40
2022-09-22T18:51:56.670Z,49.22
2022-09-22T18:54:23.043Z,49.31
2022-09-22T18:56:49.409Z,49.20
2022-09-22T18:59:15.781Z,49.15
2022-09-22T19:01:42.251Z,49.01
2022-09-22T19:04:08.669Z,49.06
2022-09-22T19:06:35.042Z,49.11
2022-09-22T19:09:01.454Z,49.10
2022-09-22T19:11:27.929Z,48.87
2022-09-22T19:13:54.308Z,48.78
2022-09-22T19:16:20.739Z,48.72
2022-09-22T19:18:47.125Z,48.79
2022-09-22T19:21:14.326Z,48.71
2022-09-22T19:23:40.810Z,48.82
2022-09-22T19:26:07.194Z,48.85
2022-09-22T19:28:33.567Z,48.71
2022-09-22T19:30:59.963Z,48.68
2022-09-22T19:33:26.371Z,48.62
2022-09-22T19:35:52.742Z,48.49
2022-09-22T19:38:19.107Z,48.31
2022-09-22T19:40:45.504Z,48.25
2022-09-22T19:43:11.925Z,48.05
2022-09-22T19:45:38.295Z,48.08
2022-09-22T19:48:04.680Z,47.88
2022-09-22T19:50:31.058Z,48.09
2022-09-22T19:52:57.450Z,48.95
2022-09-22T19:55:23.829Z,49.25
2022-09-22T19:57:50.216Z,49.55
2022-09-22T20:00:16.583Z,49.52
2022-09-22T20:02:42.987Z,49.73
2022-09-22T20:05:09.379Z,50.03
2022-09-22T20:07:35.746Z,50.00
2022-09-22T20:10:02.416Z,50.11
2022-09-22T20:12:28.868Z,50.28
2022-09-22T20:14:55.242Z,50.28
2022-09-22T20:17:21.610Z,50.18
2022-09-22T20:19:47.975Z,50.12
2022-09-22T20:22:14.345Z,50.34
2022-09-22T20:24:40.708Z,50.33
2022-09-22T20:27:07.071Z,50.26
2022-09-22T20:29:33.453Z,50.37
2022-09-22T20:31:59.820Z,50.25
2022-09-22T20:34:26.179Z,50.33
2022-09-22T20:36:52.548Z,50.37
2022-09-22T20:39:18.903Z,50.15
2022-09-22T20:41:45.286Z,50.00
2022-09-22T20:44:11.650Z,50.19
2022-09-22T20:46:38.070Z,50.22
2022-09-22T20:49:04.520Z,50.26
2022-09-22T20:51:30.880Z,50.12
2022-09-22T20:53:57.261Z,50.21
2022-09-22T20:56:23.638Z,50.02
2022-09-22T20:58:50.017Z,50.11
2022-09-22T21:01:16.405Z,50.02
2022-09-22T21:03:42.830Z,50.22
2022-09-22T21:06:09.197Z,50.15
2022-09-22T21:08:35.565Z,50.22
2022-09-22T21:11:01.957Z,50.09
2022-09-22T21:13:28.326Z,50.13
2022-09-22T21:15:54.737Z,50.28
2022-09-22T21:18:21.117Z,50.19
2022-09-22T21:20:47.487Z,49.97
2022-09-22T21:23:13.915Z,49.99
2022-09-22T21:25:40.276Z,49.43
2022-09-22T21:28:06.648Z,48.69
2022-09-22T21:30:33.008Z,48.55
2022-09-22T21:32:59.372Z,48.50
2022-09-22T21:35:25.736Z,48.49
2022-09-22T21:37:52.128Z,48.47
2022-09-22T21:40:18.568Z,48.57
2022-09-22T21:42:44.996Z,48.68
2022-09-22T21:45:11.370Z,48.83
2022-09-22T21:47:37.749Z,48.74
2022-09-22T21:50:04.131Z,48.83
2022-09-22T21:52:30.524Z,48.90
2022-09-22T21:54:56.893Z,49.05
2022-09-22T21:57:23.274Z,49.09
2022-09-22T21:59:50.722Z,48.99
2022-09-22T22:02:19.224Z,48.86
2022-09-22T22:04:45.601Z,48.76
2022-09-22T22:07:11.967Z,48.92
2022-09-22T22:09:38.342Z,49.14
2022-09-22T22:12:04.702Z,49.06
2022-09-22T22:14:31.086Z,48.93
2022-09-22T22:16:57.461Z,48.93
2022-09-22T22:19:23.838Z,49.00
2022-09-22T22:21:50.400Z,49.10
2022-09-22T22:24:16.808Z,49.00
2022-09-22T22:26:43.177Z,48.52
2022-09-22T22:29:09.562Z,48.79
2022-09-22T22:31:35.940Z,48.84
2022-09-22T22:34:02.302Z,48.79
2022-09-22T22:36:28.669Z,48.74
2022-09-22T22:38:55.039Z,48.76
2022-09-22T22:41:21.403Z,48.79
2022-09-22T22:43:47.770Z,48.68
2022-09-22T22:46:14.187Z,48.69
2022-09-22T22:48:40.618Z,48.65
2022-09-22T22:51:07.590Z,48.63
2022-09-22T22:53:34.010Z,48.66
2022-09-22T22:56:00.380Z,48.74
2022-09-22T22:58:26.750Z,48.78
2022-09-22T23:00:53.117Z,48.63
2022-09-22T23:03:19.474Z,48.64
2022-09-22T23:05:45.842Z,48.74
2022-09-22T23:08:12.226Z,48.54
2022-09-22T23:10:38.588Z,48.62
2022-09-22T23:13:04.954Z,48.76
2022-09-22T23:15:31.346Z,48.83
2022-09-22T23:17:57.719Z,48.62
2022-09-22T23:20:24.096Z,48.62
2022-09-22T23:22:50.470Z,48.84
2022-09-22T23:25:16.932Z,48.64
2022-09-22T23:27:43.299Z,48.79
2022-09-22T23:30:09.660Z,48.70
2022-09-22T23:32:36.024Z,48.70
2022-09-22T23:35:02.389Z,48.57
2022-09-22T23:37:28.758Z,48.62
2022-09-22T23:39:55.127Z,48.63
2022-09-22T23:42:21.488Z,48.64
2022-09-22T23:44:47.849Z,48.71
2022-09-22T23:47:16.220Z,48.73
2022-09-22T23:49:42.744Z,48.83
2022-09-22T23:52:09.109Z,48.80
2022-09-22T23:54:35.476Z,48.77
2022-09-22T23:57:01.837Z,48.71
2022-09-22T23:59:28.202Z,48.66
